Terminal Aerodrome Forecast
Issued by NWS

Home | Current Version | Previous Version | Text Only | Print | Product List | Glossary Off
Versions: 1 2 3 4 5 6 7 8 9 10 11 12 13 14 15 16 17

706
FTUS43 KOAX 181439 AAA
TAFCDR
TAF AMD
KCDR 181439Z 1815/1912 27009KT P6SM SKC
     FM181700 30019G30KT P6SM SKC
     FM190000 27007KT P6SM SKC=

USA.gov is the U.S. government's official web portal to all federal, state and local government web resources and services.